createdAt,value
2023-03-08T00:01:17.948Z,4.00
2023-03-08T00:03:44.967Z,4.00
2023-03-08T00:06:13.291Z,3.90
2023-03-08T00:08:40.093Z,3.90
2023-03-08T00:11:07.615Z,3.80
2023-03-08T00:13:34.716Z,3.80
2023-03-08T00:16:06.225Z,3.90
2023-03-08T00:18:34.352Z,3.80
2023-03-08T00:21:01.846Z,3.80
2023-03-08T00:23:28.508Z,3.80
2023-03-08T00:25:55.365Z,3.80
2023-03-08T00:28:22.287Z,3.80
2023-03-08T00:30:55.593Z,3.80
2023-03-08T00:33:22.269Z,3.90
2023-03-08T00:35:56.403Z,3.90
2023-03-08T00:38:23.110Z,4.00
2023-03-08T00:40:49.685Z,4.10
2023-03-08T00:43:16.388Z,3.90
2023-03-08T00:45:43.068Z,4.00
2023-03-08T00:48:09.804Z,3.90
2023-03-08T00:50:36.448Z,4.00
2023-03-08T00:53:03.134Z,4.00
2023-03-08T00:55:29.808Z,4.10
2023-03-08T00:57:56.410Z,4.10
2023-03-08T01:00:23.075Z,4.10
2023-03-08T01:02:49.687Z,4.10
2023-03-08T01:05:16.421Z,4.10
2023-03-08T01:07:43.102Z,4.10
2023-03-08T01:10:10.360Z,4.10
2023-03-08T01:12:37.113Z,4.00
2023-03-08T01:15:04.576Z,4.00
2023-03-08T01:17:31.558Z,3.90
2023-03-08T01:19:58.298Z,3.90
2023-03-08T01:22:24.934Z,3.90
2023-03-08T01:24:51.573Z,3.90
2023-03-08T01:27:18.221Z,3.80
2023-03-08T01:29:44.922Z,3.80
2023-03-08T01:32:11.649Z,3.80
2023-03-08T01:34:38.432Z,3.70
2023-03-08T01:37:05.608Z,3.80
2023-03-08T01:39:32.384Z,3.60
2023-03-08T01:41:59.073Z,3.60
2023-03-08T01:44:25.710Z,3.50
2023-03-08T01:46:52.804Z,3.60
2023-03-08T01:49:45.683Z,3.60
2023-03-08T01:52:14.411Z,3.60
2023-03-08T01:54:46.828Z,3.60
2023-03-08T01:57:13.463Z,3.50
2023-03-08T01:59:40.252Z,3.50
2023-03-08T02:02:06.968Z,3.40
2023-03-08T02:04:33.587Z,3.40
2023-03-08T02:07:00.236Z,3.30
2023-03-08T02:09:27.136Z,3.20
2023-03-08T02:11:55.056Z,3.20
2023-03-08T02:14:21.874Z,3.10
2023-03-08T02:16:48.559Z,3.10
2023-03-08T02:19:19.577Z,3.10
2023-03-08T02:21:46.210Z,2.90
2023-03-08T02:24:22.951Z,2.80
2023-03-08T02:26:51.130Z,2.60
2023-03-08T02:29:17.828Z,2.50
2023-03-08T02:31:44.503Z,2.40
2023-03-08T02:34:11.217Z,2.30
2023-03-08T02:36:37.842Z,2.30
2023-03-08T02:39:04.495Z,2.20
2023-03-08T02:41:31.198Z,2.30
2023-03-08T02:43:57.901Z,2.20
2023-03-08T02:46:24.544Z,2.20
2023-03-08T02:48:52.866Z,2.20
2023-03-08T02:51:20.533Z,2.20
2023-03-08T02:53:47.221Z,2.20
2023-03-08T02:56:13.944Z,2.10
2023-03-08T02:58:40.671Z,2.10
2023-03-08T03:01:11.430Z,2.10
2023-03-08T03:03:38.014Z,2.10
2023-03-08T03:06:04.825Z,2.10
2023-03-08T03:08:31.515Z,2.10
2023-03-08T03:10:58.123Z,2.00
2023-03-08T03:13:24.808Z,2.00
2023-03-08T03:15:51.573Z,2.10
2023-03-08T03:18:18.299Z,2.10
2023-03-08T03:20:44.959Z,2.20
2023-03-08T03:23:11.635Z,2.20
2023-03-08T03:25:38.339Z,2.20
2023-03-08T03:28:05.081Z,2.20
2023-03-08T03:30:31.736Z,2.20
2023-03-08T03:32:58.439Z,2.20
2023-03-08T03:35:25.037Z,2.30
2023-03-08T03:37:51.745Z,2.30
2023-03-08T03:40:18.505Z,2.40
2023-03-08T03:42:45.178Z,2.40
2023-03-08T03:45:11.880Z,2.40
2023-03-08T03:47:38.666Z,2.40
2023-03-08T03:50:05.508Z,2.40
2023-03-08T03:52:32.167Z,2.40
2023-03-08T03:54:58.767Z,2.40
2023-03-08T03:57:25.446Z,2.40
2023-03-08T03:59:52.118Z,2.40
2023-03-08T04:02:18.812Z,2.40
2023-03-08T04:04:48.497Z,2.40
2023-03-08T04:07:15.289Z,2.40
2023-03-08T04:09:41.995Z,2.30
2023-03-08T04:12:08.710Z,2.30
2023-03-08T04:14:35.417Z,2.30
2023-03-08T04:17:02.100Z,2.20
2023-03-08T04:19:28.812Z,2.20
2023-03-08T04:21:55.489Z,2.10
2023-03-08T04:24:22.130Z,2.10
2023-03-08T04:26:48.807Z,2.00
2023-03-08T04:29:15.522Z,2.00
2023-03-08T04:31:42.264Z,2.00
2023-03-08T04:34:08.955Z,2.00
2023-03-08T04:36:36.591Z,1.90
2023-03-08T04:39:03.450Z,1.90
2023-03-08T04:41:30.079Z,1.90
2023-03-08T04:43:57.150Z,1.90
2023-03-08T04:46:24.968Z,1.90
2023-03-08T04:48:55.613Z,1.70
2023-03-08T04:51:23.466Z,1.70
2023-03-08T04:53:50.191Z,1.70
2023-03-08T04:56:17.179Z,1.80
2023-03-08T04:58:44.112Z,1.70
2023-03-08T05:01:10.813Z,1.80
2023-03-08T05:03:37.662Z,1.80
2023-03-08T05:06:05.148Z,1.70
2023-03-08T05:08:31.847Z,1.80
2023-03-08T05:11:00.899Z,1.80
2023-03-08T05:13:29.171Z,1.90
2023-03-08T05:15:56.125Z,1.90
2023-03-08T05:18:22.893Z,1.90
2023-03-08T05:20:57.175Z,2.20
2023-03-08T05:23:24.708Z,2.00
2023-03-08T05:25:52.232Z,2.00
2023-03-08T05:28:19.061Z,2.10
2023-03-08T05:30:45.662Z,2.10
2023-03-08T05:33:12.370Z,2.10
2023-03-08T05:35:38.988Z,2.10
2023-03-08T05:38:05.682Z,2.20
2023-03-08T05:40:32.375Z,2.20
2023-03-08T05:42:59.073Z,2.20
2023-03-08T05:45:26.727Z,2.20
2023-03-08T05:47:53.607Z,2.30
2023-03-08T05:50:20.356Z,2.30
2023-03-08T05:52:47.403Z,2.30
2023-03-08T05:55:14.145Z,2.30
2023-03-08T05:57:40.886Z,2.40
2023-03-08T06:00:08.006Z,2.30
2023-03-08T06:02:34.721Z,2.30
2023-03-08T06:05:01.366Z,2.40
2023-03-08T06:07:27.951Z,2.40
2023-03-08T06:09:55.827Z,2.40
2023-03-08T06:12:22.451Z,2.50
2023-03-08T06:14:49.116Z,2.50
2023-03-08T06:17:15.820Z,2.50
2023-03-08T06:19:42.501Z,2.60
2023-03-08T06:22:09.142Z,2.60
2023-03-08T06:24:35.788Z,2.60
2023-03-08T06:27:02.505Z,2.70
2023-03-08T06:29:29.152Z,2.60
2023-03-08T06:31:55.889Z,2.70
2023-03-08T06:34:22.597Z,2.80
2023-03-08T06:36:49.225Z,2.80
2023-03-08T06:39:15.884Z,2.90
2023-03-08T06:41:42.592Z,2.90
2023-03-08T06:44:09.309Z,3.00
2023-03-08T06:46:35.943Z,2.90
2023-03-08T06:49:03.286Z,3.00
2023-03-08T06:51:30.037Z,3.10
2023-03-08T06:53:56.682Z,3.10
2023-03-08T06:56:24.307Z,3.20
2023-03-08T06:58:50.972Z,3.20
2023-03-08T07:01:18.079Z,3.20
2023-03-08T07:03:45.545Z,3.40
2023-03-08T07:06:12.377Z,3.30
2023-03-08T07:08:42.027Z,3.40
2023-03-08T07:11:09.833Z,3.50
2023-03-08T07:13:37.009Z,3.50
2023-03-08T07:16:07.998Z,3.70
2023-03-08T07:18:34.798Z,3.60
2023-03-08T07:21:01.610Z,3.80
2023-03-08T07:23:28.327Z,4.00
2023-03-08T07:25:54.986Z,4.20
2023-03-08T07:28:21.649Z,4.40
2023-03-08T07:30:49.154Z,4.50
2023-03-08T07:33:16.359Z,4.60
2023-03-08T07:35:43.001Z,4.70
2023-03-08T07:38:11.380Z,4.80
2023-03-08T07:40:38.107Z,4.90
2023-03-08T07:43:04.884Z,5.00
2023-03-08T07:45:31.624Z,5.20
2023-03-08T07:47:59.025Z,5.40
2023-03-08T07:50:25.872Z,5.50
2023-03-08T07:52:52.450Z,5.70
2023-03-08T07:55:19.422Z,5.90
2023-03-08T07:57:46.044Z,5.90
2023-03-08T08:00:12.887Z,5.90
2023-03-08T08:02:39.721Z,6.00
2023-03-08T08:05:06.595Z,6.00
2023-03-08T08:07:33.371Z,6.00
2023-03-08T08:10:00.016Z,6.10
2023-03-08T08:12:26.735Z,6.30
2023-03-08T08:14:53.792Z,6.20
2023-03-08T08:17:21.033Z,6.20
2023-03-08T08:19:48.044Z,6.10
2023-03-08T08:22:14.792Z,6.20
2023-03-08T08:24:41.511Z,6.20
2023-03-08T08:27:08.266Z,6.30
2023-03-08T08:29:34.950Z,6.30
2023-03-08T08:32:02.721Z,6.40
2023-03-08T08:34:29.387Z,6.60
2023-03-08T08:36:56.646Z,6.70
2023-03-08T08:39:23.325Z,6.70
2023-03-08T08:41:50.412Z,6.70
2023-03-08T08:44:17.128Z,6.70
2023-03-08T08:46:43.842Z,6.60
2023-03-08T08:49:10.942Z,6.60
2023-03-08T08:51:37.803Z,6.50
2023-03-08T08:54:04.569Z,6.50
2023-03-08T08:56:31.536Z,6.50
2023-03-08T08:59:00.254Z,6.70
2023-03-08T09:01:28.476Z,6.60
2023-03-08T09:03:55.656Z,6.80
2023-03-08T09:06:23.740Z,6.80
2023-03-08T09:08:51.154Z,7.00
2023-03-08T09:11:17.895Z,7.00
2023-03-08T09:13:44.752Z,7.30
2023-03-08T09:16:18.998Z,7.50
2023-03-08T09:18:45.799Z,7.60
2023-03-08T09:21:12.592Z,7.60
2023-03-08T09:23:39.394Z,7.90
2023-03-08T09:26:06.295Z,8.10
2023-03-08T09:28:33.236Z,8.10
2023-03-08T09:31:00.100Z,8.30
2023-03-08T09:33:26.789Z,8.40
2023-03-08T09:36:01.224Z,8.40
2023-03-08T09:38:27.926Z,8.30
2023-03-08T09:40:57.593Z,8.20
2023-03-08T09:43:28.813Z,8.10
2023-03-08T09:45:55.811Z,7.90
2023-03-08T09:48:25.673Z,7.90
2023-03-08T09:50:53.528Z,7.80
2023-03-08T09:53:32.236Z,7.70
2023-03-08T09:56:09.173Z,7.60
2023-03-08T09:58:35.814Z,7.70
2023-03-08T10:01:21.652Z,7.70
2023-03-08T10:03:48.434Z,7.70
2023-03-08T10:06:19.523Z,7.90
2023-03-08T10:08:50.583Z,8.00
2023-03-08T10:11:40.624Z,8.00
2023-03-08T10:14:13.949Z,8.00
2023-03-08T10:16:45.869Z,8.00
2023-03-08T10:19:31.358Z,8.10
2023-03-08T10:21:59.142Z,8.20
2023-03-08T10:24:39.511Z,8.30
2023-03-08T10:27:16.826Z,8.30
2023-03-08T10:29:54.391Z,8.40
2023-03-08T10:32:21.545Z,8.60
2023-03-08T10:34:48.963Z,8.50
2023-03-08T10:37:15.749Z,8.50
2023-03-08T10:39:54.822Z,8.50
2023-03-08T10:42:22.704Z,8.50
2023-03-08T10:45:12.586Z,8.70
2023-03-08T10:47:39.327Z,8.70
2023-03-08T10:50:18.052Z,8.70
2023-03-08T10:52:45.809Z,8.80
2023-03-08T10:55:14.054Z,8.70
2023-03-08T10:58:01.418Z,8.90
2023-03-08T11:00:42.266Z,9.00
2023-03-08T11:03:15.178Z,9.30
2023-03-08T11:05:51.476Z,9.50
2023-03-08T11:08:19.345Z,9.60
2023-03-08T11:10:46.002Z,9.90
2023-03-08T11:13:15.704Z,10.10
2023-03-08T11:15:44.023Z,10.30
2023-03-08T11:18:16.617Z,10.30
2023-03-08T11:20:48.148Z,10.40
2023-03-08T11:23:29.709Z,10.50
2023-03-08T11:26:03.593Z,10.60
2023-03-08T11:28:42.452Z,10.80
2023-03-08T11:31:18.229Z,11.00
2023-03-08T11:33:48.076Z,11.10
2023-03-08T11:36:38.776Z,11.30
2023-03-08T11:39:17.012Z,11.50
2023-03-08T11:41:56.114Z,11.60
2023-03-08T11:44:22.785Z,11.70
2023-03-08T11:46:58.645Z,11.70
2023-03-08T11:49:25.385Z,11.90
2023-03-08T11:51:58.086Z,12.10
2023-03-08T11:54:57.413Z,12.10
2023-03-08T11:57:25.223Z,12.00
2023-03-08T11:59:54.436Z,11.90
2023-03-08T12:02:28.299Z,11.50
2023-03-08T12:05:14.829Z,11.50
2023-03-08T12:07:55.715Z,11.70
2023-03-08T12:10:23.853Z,11.70
2023-03-08T12:12:50.496Z,12.00
2023-03-08T12:15:28.668Z,11.70
2023-03-08T12:18:06.382Z,11.80
2023-03-08T12:20:36.589Z,11.90
2023-03-08T12:23:11.462Z,11.90
2023-03-08T12:25:39.928Z,11.80
2023-03-08T12:28:12.623Z,11.80
2023-03-08T12:30:44.685Z,11.80
2023-03-08T12:33:13.684Z,11.90
2023-03-08T12:35:54.152Z,11.80
2023-03-08T12:38:20.886Z,12.00
2023-03-08T12:40:49.975Z,12.00
2023-03-08T12:43:19.561Z,11.90
2023-03-08T12:45:47.478Z,12.00
2023-03-08T12:48:17.709Z,12.10
2023-03-08T12:50:46.930Z,12.30
2023-03-08T12:53:32.376Z,12.40
2023-03-08T12:56:03.616Z,12.50
2023-03-08T12:58:31.586Z,12.60
2023-03-08T13:01:02.499Z,12.70
2023-03-08T13:03:41.866Z,12.80
2023-03-08T13:06:15.510Z,13.00
2023-03-08T13:08:48.877Z,12.90
2023-03-08T13:11:16.879Z,13.10
2023-03-08T13:13:56.620Z,13.00
2023-03-08T13:16:26.341Z,13.10
2023-03-08T13:19:01.982Z,13.10
2023-03-08T13:21:41.577Z,12.90
2023-03-08T13:24:17.348Z,12.90
2023-03-08T13:26:50.684Z,12.90
2023-03-08T13:29:18.964Z,12.90
2023-03-08T13:31:46.726Z,12.90
2023-03-08T13:34:28.039Z,12.80
2023-03-08T13:36:55.798Z,12.70
2023-03-08T13:39:24.505Z,12.70
2023-03-08T13:41:51.580Z,12.60
2023-03-08T13:44:21.264Z,12.60
2023-03-08T13:46:49.318Z,12.70
2023-03-08T13:49:17.452Z,12.70
2023-03-08T13:51:45.397Z,12.70
2023-03-08T13:54:16.471Z,12.60
2023-03-08T13:56:43.261Z,12.70
2023-03-08T13:59:17.700Z,12.60
2023-03-08T14:01:51.882Z,12.70
2023-03-08T14:04:29.640Z,12.70
2023-03-08T14:06:57.744Z,12.80
2023-03-08T14:09:25.810Z,12.70
2023-03-08T14:11:55.592Z,12.70
2023-03-08T14:14:32.702Z,12.60
2023-03-08T14:16:59.966Z,12.70
2023-03-08T14:19:40.262Z,12.80
2023-03-08T14:22:09.915Z,12.90
2023-03-08T14:24:36.897Z,12.90
2023-03-08T14:27:23.684Z,12.80
2023-03-08T14:30:00.823Z,12.70
2023-03-08T14:32:31.562Z,12.70
2023-03-08T14:35:06.648Z,12.80
2023-03-08T14:37:34.896Z,12.90
2023-03-08T14:40:13.539Z,12.80
2023-03-08T14:42:51.156Z,12.80
2023-03-08T14:45:29.682Z,12.80
2023-03-08T14:48:00.463Z,12.80
2023-03-08T14:50:35.981Z,12.70
2023-03-08T14:53:03.070Z,12.80
2023-03-08T14:55:35.479Z,12.90
2023-03-08T14:58:03.429Z,12.90
2023-03-08T15:00:30.832Z,12.90
2023-03-08T15:02:58.161Z,12.90
2023-03-08T15:05:29.102Z,12.90
2023-03-08T15:07:57.063Z,12.90
2023-03-08T15:10:34.102Z,13.00
2023-03-08T15:13:00.895Z,13.10
2023-03-08T15:15:27.800Z,13.20
2023-03-08T15:17:54.490Z,13.20
2023-03-08T15:20:22.295Z,13.10
2023-03-08T15:22:51.087Z,13.10
2023-03-08T15:25:28.627Z,13.10
2023-03-08T15:27:55.421Z,13.10
2023-03-08T15:30:26.499Z,13.00
2023-03-08T15:32:53.346Z,13.00
2023-03-08T15:35:20.414Z,12.80
2023-03-08T15:37:47.538Z,12.80
2023-03-08T15:40:14.822Z,12.80
2023-03-08T15:42:41.493Z,12.80
2023-03-08T15:45:08.932Z,12.80
2023-03-08T15:47:35.581Z,12.80
2023-03-08T15:50:02.424Z,12.80
2023-03-08T15:52:30.888Z,12.80
2023-03-08T15:54:57.975Z,12.80
2023-03-08T15:57:24.788Z,12.70
2023-03-08T15:59:51.815Z,12.80
2023-03-08T16:02:19.489Z,12.80
2023-03-08T16:04:48.115Z,12.80
2023-03-08T16:07:19.111Z,12.80
2023-03-08T16:09:46.501Z,12.80
2023-03-08T16:12:14.410Z,12.80
2023-03-08T16:14:46.292Z,12.90
2023-03-08T16:17:15.089Z,12.90
2023-03-08T16:19:43.606Z,12.70
2023-03-08T16:22:10.667Z,12.70
2023-03-08T16:24:37.405Z,12.60
2023-03-08T16:27:04.589Z,12.70
2023-03-08T16:29:32.287Z,12.70
2023-03-08T16:31:59.458Z,12.50
2023-03-08T16:34:26.719Z,12.40
2023-03-08T16:36:53.909Z,12.50
2023-03-08T16:39:20.894Z,12.40
2023-03-08T16:41:47.724Z,12.40
2023-03-08T16:44:18.968Z,12.50
2023-03-08T16:46:45.696Z,12.40
2023-03-08T16:49:12.493Z,12.40
2023-03-08T16:51:39.369Z,12.40
2023-03-08T16:54:06.045Z,12.40
2023-03-08T16:56:32.802Z,12.20
2023-03-08T16:59:00.109Z,12.10
2023-03-08T17:01:26.996Z,12.10
2023-03-08T17:03:54.946Z,12.00
2023-03-08T17:06:22.774Z,11.80
2023-03-08T17:08:49.458Z,11.80
2023-03-08T17:11:17.630Z,11.60
2023-03-08T17:13:46.992Z,11.60
2023-03-08T17:16:13.808Z,11.50
2023-03-08T17:18:40.524Z,11.40
2023-03-08T17:21:07.330Z,11.50
2023-03-08T17:23:33.987Z,11.30
2023-03-08T17:26:02.878Z,11.30
2023-03-08T17:28:29.515Z,11.40
2023-03-08T17:30:56.184Z,11.30
2023-03-08T17:33:25.944Z,11.30
2023-03-08T17:35:53.776Z,11.20
2023-03-08T17:38:20.625Z,11.30
2023-03-08T17:40:47.568Z,11.30
2023-03-08T17:43:14.346Z,11.30
2023-03-08T17:45:41.052Z,11.30
2023-03-08T17:48:10.203Z,11.30
2023-03-08T17:50:37.144Z,11.30
2023-03-08T17:53:03.898Z,11.30
2023-03-08T17:55:30.660Z,11.30
2023-03-08T17:57:57.354Z,11.40
2023-03-08T18:00:24.711Z,11.40
2023-03-08T18:02:51.646Z,11.50
2023-03-08T18:05:18.352Z,11.60
2023-03-08T18:07:46.160Z,11.60
2023-03-08T18:10:12.898Z,11.70
2023-03-08T18:12:39.807Z,11.70
2023-03-08T18:15:07.069Z,11.80
2023-03-08T18:17:40.701Z,11.70
2023-03-08T18:20:09.586Z,11.70
2023-03-08T18:22:37.174Z,11.80
2023-03-08T18:25:04.762Z,11.80
2023-03-08T18:27:33.266Z,11.80
2023-03-08T18:29:59.990Z,11.90
2023-03-08T18:32:28.064Z,11.80
2023-03-08T18:34:54.788Z,11.80
2023-03-08T18:37:21.484Z,11.80
2023-03-08T18:39:52.381Z,11.80
2023-03-08T18:42:19.342Z,11.80
2023-03-08T18:44:46.041Z,11.80
2023-03-08T18:47:12.699Z,11.70
2023-03-08T18:49:39.583Z,11.70
2023-03-08T18:52:06.392Z,11.70
2023-03-08T18:54:33.687Z,11.70
2023-03-08T18:57:00.370Z,11.70
2023-03-08T18:59:28.911Z,11.70
2023-03-08T19:01:55.594Z,11.60
2023-03-08T19:04:22.294Z,11.40
2023-03-08T19:06:48.917Z,11.30
2023-03-08T19:09:17.112Z,11.20
2023-03-08T19:11:44.188Z,11.20
2023-03-08T19:14:14.276Z,11.20
2023-03-08T19:16:40.974Z,11.20
2023-03-08T19:19:09.259Z,11.20
2023-03-08T19:21:37.796Z,11.20
2023-03-08T19:24:05.023Z,11.20
2023-03-08T19:26:38.744Z,11.20
2023-03-08T19:29:21.616Z,11.20
2023-03-08T19:31:51.473Z,11.20
2023-03-08T19:34:18.935Z,11.20
2023-03-08T19:36:46.076Z,11.10
2023-03-08T19:39:14.776Z,11.10
2023-03-08T19:41:41.828Z,11.10
2023-03-08T19:44:08.642Z,10.90
2023-03-08T19:46:35.985Z,10.80
2023-03-08T19:49:03.160Z,10.70
2023-03-08T19:51:29.805Z,10.70
2023-03-08T19:53:56.484Z,10.60
2023-03-08T19:56:24.906Z,10.60
2023-03-08T19:58:52.908Z,10.50
2023-03-08T20:01:20.253Z,10.70
2023-03-08T20:03:47.131Z,10.70
2023-03-08T20:06:20.966Z,10.70
2023-03-08T20:08:47.628Z,10.80
2023-03-08T20:11:14.290Z,10.80
2023-03-08T20:13:40.999Z,10.80
2023-03-08T20:16:07.660Z,10.80
2023-03-08T20:18:34.317Z,10.80
2023-03-08T20:21:03.036Z,10.80
2023-03-08T20:23:31.724Z,10.90
2023-03-08T20:25:59.045Z,10.80
2023-03-08T20:28:25.730Z,10.70
2023-03-08T20:30:52.876Z,10.80
2023-03-08T20:33:19.575Z,10.90
2023-03-08T20:35:51.944Z,10.80
2023-03-08T20:38:18.685Z,10.90
2023-03-08T20:40:45.981Z,10.80
2023-03-08T20:43:12.846Z,10.80
2023-03-08T20:45:40.395Z,10.90
2023-03-08T20:48:07.104Z,10.90
2023-03-08T20:50:33.767Z,10.90
2023-03-08T20:53:00.548Z,11.00
2023-03-08T20:55:27.293Z,10.90
2023-03-08T20:57:53.973Z,11.00
2023-03-08T21:00:20.786Z,10.90
2023-03-08T21:02:47.541Z,11.00
2023-03-08T21:05:14.280Z,11.10
2023-03-08T21:07:42.426Z,11.10
2023-03-08T21:10:09.438Z,11.10
2023-03-08T21:12:38.151Z,11.10
2023-03-08T21:15:06.158Z,11.10
2023-03-08T21:17:36.054Z,11.10
2023-03-08T21:20:02.943Z,11.10
2023-03-08T21:22:31.212Z,11.10
2023-03-08T21:24:57.878Z,11.10
2023-03-08T21:27:24.519Z,11.10
2023-03-08T21:29:51.392Z,11.00
2023-03-08T21:32:18.095Z,11.00
2023-03-08T21:34:44.708Z,11.00
2023-03-08T21:37:11.355Z,11.00
2023-03-08T21:39:38.000Z,11.00
2023-03-08T21:42:05.282Z,10.90
2023-03-08T21:44:32.177Z,11.00
2023-03-08T21:46:58.910Z,11.00
2023-03-08T21:49:26.690Z,11.00
2023-03-08T21:51:54.452Z,11.00
2023-03-08T21:54:21.825Z,11.00
2023-03-08T21:56:48.570Z,10.90
2023-03-08T21:59:16.780Z,10.80
2023-03-08T22:01:48.126Z,10.90
2023-03-08T22:04:15.488Z,10.70
2023-03-08T22:06:42.275Z,10.70
2023-03-08T22:09:09.901Z,10.60
2023-03-08T22:11:36.817Z,10.60
2023-03-08T22:14:03.458Z,10.60
2023-03-08T22:16:30.703Z,10.60
2023-03-08T22:19:01.490Z,10.60
2023-03-08T22:21:28.631Z,10.50
2023-03-08T22:23:56.413Z,10.50
2023-03-08T22:26:23.593Z,10.50
2023-03-08T22:28:50.629Z,10.50
2023-03-08T22:31:18.964Z,10.60
2023-03-08T22:33:46.001Z,10.60
2023-03-08T22:36:13.777Z,10.60
2023-03-08T22:38:40.699Z,10.60
2023-03-08T22:41:14.512Z,10.60
2023-03-08T22:43:41.606Z,10.60
2023-03-08T22:46:13.303Z,10.60
2023-03-08T22:48:40.037Z,10.60
2023-03-08T22:51:11.222Z,10.60
2023-03-08T22:53:38.536Z,10.60
2023-03-08T22:56:05.330Z,10.60
2023-03-08T22:58:32.006Z,10.60
2023-03-08T23:00:58.711Z,10.60
2023-03-08T23:03:25.841Z,10.60
2023-03-08T23:05:52.499Z,10.60
2023-03-08T23:08:19.195Z,10.60
2023-03-08T23:10:46.031Z,10.60
2023-03-08T23:13:21.667Z,10.60
2023-03-08T23:15:58.117Z,10.60
2023-03-08T23:18:24.836Z,10.60
2023-03-08T23:20:51.520Z,10.50
2023-03-08T23:23:18.174Z,10.40
2023-03-08T23:25:45.009Z,10.40
2023-03-08T23:28:11.720Z,10.30
2023-03-08T23:30:40.972Z,10.30
2023-03-08T23:33:07.628Z,10.20
2023-03-08T23:35:34.269Z,10.20
2023-03-08T23:38:01.631Z,10.20
2023-03-08T23:40:28.283Z,10.20
2023-03-08T23:42:54.940Z,10.30
2023-03-08T23:45:21.635Z,10.40
2023-03-08T23:47:48.286Z,10.40
2023-03-08T23:50:14.981Z,10.50
2023-03-08T23:52:41.592Z,10.50
2023-03-08T23:55:08.481Z,10.50
2023-03-08T23:57:35.096Z,10.50
